Time,TemperatureF,DewpointF,PressureIn,WindDirection,WindDirectionDegrees,WindSpeedMPH,WindSpeedGustMPH,Humidity,HourlyPrecipIn,Conditions,Clouds,dailyrainin,SolarRadiationWatts/m^2,SoftwareType,DateUTC
2013-01-12 00:03:00,39.7,39.2,29.48,SSW,208,0.0,11.0,98,0.00,,,0.02,0.0,meteohub,2013-01-12 06:03:00,
2013-01-12 00:10:00,39.6,39.0,29.48,South,189,3.0,11.0,98,0.00,,,0.00,0.0,meteohub,2013-01-12 06:10:00,
2013-01-12 00:16:00,39.4,38.8,29.48,SW,215,4.0,10.0,98,0.00,,,0.00,0.0,meteohub,2013-01-12 06:16:00,
2013-01-12 00:22:00,39.0,38.5,29.48,SW,234,5.0,10.0,98,0.00,,,0.00,0.0,meteohub,2013-01-12 06:22:00,
2013-01-12 00:28:00,38.8,38.3,29.48,WSW,237,6.0,13.0,98,0.00,,,0.00,0.0,meteohub,2013-01-12 06:28:00,
2013-01-12 00:34:00,38.8,38.3,29.48,SW,217,2.0,13.0,98,0.00,,,0.00,0.0,meteohub,2013-01-12 06:34:00,
2013-01-12 00:41:00,38.5,37.8,29.49,SSE,157,3.0,9.0,97,0.00,,,0.00,0.0,meteohub,2013-01-12 06:41:00,
2013-01-12 00:47:00,38.1,37.4,29.49,SSW,209,7.0,9.0,97,0.00,,,0.00,0.0,meteohub,2013-01-12 06:47:00,
2013-01-12 00:53:00,38.1,37.4,29.49,WSW,239,4.0,9.0,97,0.00,,,0.00,0.0,meteohub,2013-01-12 06:53:00,
2013-01-12 00:59:00,37.9,36.9,29.49,SW,234,3.0,11.0,96,0.00,,,0.00,0.0,meteohub,2013-01-12 06:59:00,
2013-01-12 01:05:00,37.8,36.7,29.50,SSW,205,1.0,11.0,96,0.00,,,0.00,0.0,meteohub,2013-01-12 07:05:00,
2013-01-12 01:11:00,37.6,36.5,29.51,South,188,1.0,11.0,96,0.00,,,0.00,0.0,meteohub,2013-01-12 07:11:00,
2013-01-12 01:17:00,37.4,36.3,29.52,South,186,2.0,8.0,96,0.00,,,0.00,0.0,meteohub,2013-01-12 07:17:00,
2013-01-12 01:22:00,37.4,36.1,29.52,SSW,198,7.0,8.0,95,0.00,,,0.00,0.0,meteohub,2013-01-12 07:22:00,
2013-01-12 01:28:00,37.2,36.0,29.52,SSW,200,5.0,9.0,95,0.00,,,0.00,0.0,meteohub,2013-01-12 07:28:00,
2013-01-12 01:34:00,37.2,36.0,29.53,SSW,193,5.0,16.0,95,0.00,,,0.00,0.0,meteohub,2013-01-12 07:34:00,
2013-01-12 01:40:00,37.0,35.4,29.53,West,277,10.0,16.0,94,0.00,,,0.00,0.0,meteohub,2013-01-12 07:40:00,
2013-01-12 01:46:00,36.9,35.1,29.54,SSW,198,7.0,16.0,93,0.00,,,0.00,0.0,meteohub,2013-01-12 07:46:00,
2013-01-12 01:53:00,36.5,34.7,29.54,SW,229,5.0,16.0,93,0.00,,,0.00,0.0,meteohub,2013-01-12 07:53:00,
2013-01-12 01:59:00,36.1,34.3,29.54,WSW,242,5.0,21.0,93,0.00,,,0.00,0.0,meteohub,2013-01-12 07:59:00,
2013-01-12 02:05:00,36.0,34.2,29.55,SW,229,9.0,20.0,93,0.01,,,0.01,0.0,meteohub,2013-01-12 08:05:00,
2013-01-12 02:11:00,35.8,34.0,29.55,SW,234,4.0,20.0,93,0.01,,,0.01,0.0,meteohub,2013-01-12 08:11:00,
2013-01-12 02:17:00,35.6,33.8,29.56,NW,308,5.0,20.0,93,0.01,,,0.01,0.0,meteohub,2013-01-12 08:17:00,
2013-01-12 02:23:00,35.2,33.1,29.57,South,180,6.0,16.0,92,0.01,,,0.01,0.0,meteohub,2013-01-12 08:23:00,
2013-01-12 02:30:00,34.9,32.7,29.57,SW,219,5.0,16.0,92,0.01,,,0.01,0.0,meteohub,2013-01-12 08:30:00,
2013-01-12 02:36:00,34.0,31.8,29.58,SW,236,5.0,13.0,92,0.01,,,0.01,0.0,meteohub,2013-01-12 08:36:00,
2013-01-12 02:42:00,33.1,30.7,29.59,West,265,13.0,13.0,91,0.01,,,0.01,0.0,meteohub,2013-01-12 08:42:00,
2013-01-12 02:48:00,32.4,30.0,29.60,SSW,198,4.0,16.0,91,0.01,,,0.01,0.0,meteohub,2013-01-12 08:48:00,
2013-01-12 02:54:00,31.5,28.9,29.61,SW,233,5.0,19.0,90,0.01,,,0.01,0.0,meteohub,2013-01-12 08:54:00,
2013-01-12 03:00:00,30.4,27.3,29.62,SSW,192,6.0,19.0,88,0.01,,,0.01,0.0,meteohub,2013-01-12 09:00:00,
2013-01-12 03:06:00,29.5,26.6,29.62,SSW,203,5.0,21.0,89,0.00,,,0.01,0.0,meteohub,2013-01-12 09:06:00,
2013-01-12 03:13:00,28.8,25.9,29.62,West,259,3.0,21.0,89,0.00,,,0.01,0.0,meteohub,2013-01-12 09:13:00,
2013-01-12 03:19:00,28.4,25.5,29.63,South,185,10.0,18.0,89,0.00,,,0.01,0.0,meteohub,2013-01-12 09:19:00,
2013-01-12 03:25:00,27.9,25.0,29.65,West,265,9.0,18.0,89,0.00,,,0.01,0.0,meteohub,2013-01-12 09:25:00,
2013-01-12 03:31:00,27.0,23.5,29.66,SW,232,3.0,18.0,87,0.00,,,0.01,0.0,meteohub,2013-01-12 09:31:00,
2013-01-12 03:37:00,26.1,22.1,29.66,South,189,5.0,25.0,85,0.00,,,0.01,0.0,meteohub,2013-01-12 09:37:00,
2013-01-12 03:43:00,25.5,21.9,29.66,SW,223,5.0,25.0,86,0.00,,,0.01,0.0,meteohub,2013-01-12 09:43:00,
2013-01-12 03:50:00,25.5,22.3,29.67,SSW,213,4.0,25.0,87,0.00,,,0.01,0.0,meteohub,2013-01-12 09:50:00,
2013-01-12 03:56:00,25.2,21.6,29.68,SW,218,8.0,19.0,86,0.00,,,0.01,0.0,meteohub,2013-01-12 09:56:00,
2013-01-12 04:02:00,24.8,21.0,29.68,SSW,197,7.0,19.0,85,0.00,,,0.01,0.0,meteohub,2013-01-12 10:02:00,
2013-01-12 04:08:00,24.4,20.7,29.69,WSW,250,4.0,22.0,85,0.00,,,0.01,0.0,meteohub,2013-01-12 10:08:00,
2013-01-12 04:14:00,24.1,20.3,29.70,SW,227,3.0,22.0,85,0.00,,,0.01,0.0,meteohub,2013-01-12 10:14:00,
2013-01-12 04:20:00,23.9,20.1,29.71,SSW,206,2.0,22.0,85,0.00,,,0.01,0.0,meteohub,2013-01-12 10:20:00,
2013-01-12 04:27:00,23.7,19.9,29.70,SSW,207,4.0,20.0,85,0.00,,,0.01,0.0,meteohub,2013-01-12 10:27:00,
2013-01-12 04:33:00,23.4,19.2,29.72,WSW,246,10.0,20.0,84,0.00,,,0.01,0.0,meteohub,2013-01-12 10:33:00,
2013-01-12 04:39:00,22.8,18.1,29.73,WNW,292,5.0,23.0,82,0.00,,,0.01,0.0,meteohub,2013-01-12 10:39:00,
2013-01-12 04:45:00,22.6,18.3,29.73,South,173,7.0,24.0,83,0.00,,,0.01,0.0,meteohub,2013-01-12 10:45:00,
2013-01-12 04:51:00,22.6,18.0,29.74,WNW,284,5.0,24.0,82,0.00,,,0.01,0.0,meteohub,2013-01-12 10:51:00,
2013-01-12 04:57:00,22.5,18.1,29.74,SSW,205,4.0,24.0,83,0.00,,,0.01,0.0,meteohub,2013-01-12 10:57:00,
2013-01-12 05:04:00,22.3,17.6,29.75,South,188,7.0,24.0,82,0.00,,,0.01,0.0,meteohub,2013-01-12 11:04:00,
2013-01-12 05:10:00,21.7,16.5,29.76,West,267,2.0,19.0,80,0.00,,,0.01,0.0,meteohub,2013-01-12 11:10:00,
2013-01-12 05:16:00,21.4,15.8,29.76,WSW,253,4.0,19.0,79,0.00,,,0.01,0.0,meteohub,2013-01-12 11:16:00,
2013-01-12 05:22:00,21.0,15.6,29.78,WNW,293,6.0,30.0,79,0.00,,,0.01,0.0,meteohub,2013-01-12 11:22:00,
2013-01-12 05:28:00,20.8,15.4,29.78,WSW,252,4.0,30.0,79,0.00,,,0.01,0.0,meteohub,2013-01-12 11:28:00,
2013-01-12 05:35:00,20.5,15.1,29.78,WNW,296,5.0,30.0,79,0.00,,,0.01,0.0,meteohub,2013-01-12 11:35:00,
2013-01-12 05:41:00,20.3,15.1,29.80,WSW,254,2.0,21.0,80,0.00,,,0.01,0.0,meteohub,2013-01-12 11:41:00,
2013-01-12 05:47:00,20.1,14.9,29.80,WSW,249,2.0,21.0,80,0.00,,,0.01,0.0,meteohub,2013-01-12 11:47:00,
2013-01-12 05:53:00,19.8,14.5,29.81,NW,315,11.0,23.0,80,0.00,,,0.01,0.0,meteohub,2013-01-12 11:53:00,
2013-01-12 05:59:00,19.6,14.4,29.82,NNW,346,9.0,23.0,80,0.00,,,0.01,0.0,meteohub,2013-01-12 11:59:00,
2013-01-12 06:06:00,19.6,14.9,29.82,West,259,4.0,23.0,82,0.00,,,0.01,0.0,meteohub,2013-01-12 12:06:00,
2013-01-12 06:12:00,19.6,14.7,29.83,WSW,237,6.0,16.0,81,0.00,,,0.01,0.0,meteohub,2013-01-12 12:12:00,
2013-01-12 06:18:00,19.4,14.2,29.84,West,264,11.0,16.0,80,0.00,,,0.01,0.0,meteohub,2013-01-12 12:18:00,
2013-01-12 06:24:00,19.0,13.6,29.85,West,261,6.0,16.0,79,0.00,,,0.01,0.0,meteohub,2013-01-12 12:24:00,
2013-01-12 06:30:00,18.9,13.5,29.85,SW,223,5.0,16.0,79,0.00,,,0.01,0.0,meteohub,2013-01-12 12:30:00,
2013-01-12 06:36:00,18.9,13.1,29.86,WSW,252,3.0,22.0,78,0.00,,,0.01,0.0,meteohub,2013-01-12 12:36:00,
2013-01-12 06:43:00,18.7,13.3,29.87,SSE,167,3.0,22.0,79,0.00,,,0.01,0.0,meteohub,2013-01-12 12:43:00,
2013-01-12 06:49:00,18.5,13.1,29.88,WSW,244,3.0,22.0,79,0.00,,,0.01,0.0,meteohub,2013-01-12 12:49:00,
2013-01-12 06:55:00,18.5,13.1,29.88,SSW,209,3.0,20.0,79,0.00,,,0.01,0.0,meteohub,2013-01-12 12:55:00,
2013-01-12 07:01:00,18.3,12.6,29.88,SW,230,3.0,20.0,78,0.00,,,0.01,0.0,meteohub,2013-01-12 13:01:00,
2013-01-12 07:07:00,18.1,12.4,29.89,West,269,4.0,19.0,78,0.00,,,0.01,0.0,meteohub,2013-01-12 13:07:00,
2013-01-12 07:14:00,18.1,12.7,29.90,West,275,8.0,16.0,79,0.00,,,0.01,0.0,meteohub,2013-01-12 13:14:00,
2013-01-12 07:20:00,18.0,12.2,29.90,NNW,342,4.0,16.0,78,0.00,,,0.01,0.0,meteohub,2013-01-12 13:20:00,
2013-01-12 07:26:00,17.8,12.0,29.91,WNW,292,8.0,18.0,78,0.00,,,0.01,0.0,meteohub,2013-01-12 13:26:00,
2013-01-12 07:32:00,17.8,12.0,29.92,SSW,198,4.0,18.0,78,0.00,,,0.01,0.0,meteohub,2013-01-12 13:32:00,
2013-01-12 07:38:00,17.6,11.8,29.93,WSW,257,6.0,18.0,78,0.00,,,0.01,0.0,meteohub,2013-01-12 13:38:00,
2013-01-12 07:44:00,17.6,11.8,29.93,WSW,252,17.0,18.0,78,0.00,,,0.01,0.0,meteohub,2013-01-12 13:44:00,
2013-01-12 07:51:00,17.2,11.5,29.93,SW,230,7.0,18.0,78,0.00,,,0.01,0.0,meteohub,2013-01-12 13:51:00,
2013-01-12 07:57:00,17.2,11.8,29.94,SW,215,5.0,18.0,79,0.00,,,0.01,7.0,meteohub,2013-01-12 13:57:00,
2013-01-12 08:03:00,17.1,11.7,29.94,WSW,247,1.0,18.0,79,0.00,,,0.01,11.0,meteohub,2013-01-12 14:03:00,
2013-01-12 08:09:00,17.1,11.5,29.95,WSW,256,3.0,17.0,78,0.00,,,0.01,16.0,meteohub,2013-01-12 14:09:00,
2013-01-12 08:15:00,16.9,11.3,29.95,WSW,242,4.0,18.0,78,0.00,,,0.01,23.0,meteohub,2013-01-12 14:15:00,
2013-01-12 08:21:00,16.7,10.4,29.96,SW,224,8.0,18.0,76,0.00,,,0.01,33.0,meteohub,2013-01-12 14:21:00,
2013-01-12 08:28:00,16.7,10.4,29.97,WSW,252,6.0,24.0,76,0.00,,,0.01,49.0,meteohub,2013-01-12 14:28:00,
2013-01-12 08:34:00,16.7,10.4,29.97,WNW,293,6.0,24.0,76,0.00,,,0.01,51.0,meteohub,2013-01-12 14:34:00,
2013-01-12 08:40:00,16.7,10.4,29.97,West,259,6.0,24.0,76,0.00,,,0.01,46.0,meteohub,2013-01-12 14:40:00,
2013-01-12 08:46:00,16.7,10.4,29.97,SW,225,6.0,17.0,76,0.00,,,0.01,62.0,meteohub,2013-01-12 14:46:00,
2013-01-12 08:52:00,16.9,10.6,29.99,SW,229,7.0,17.0,76,0.00,,,0.01,37.0,meteohub,2013-01-12 14:52:00,
2013-01-12 08:58:00,16.5,9.7,29.98,West,261,11.0,19.0,74,0.00,,,0.01,25.0,meteohub,2013-01-12 14:58:00,
2013-01-12 09:05:00,16.3,9.9,29.99,WSW,246,4.0,18.0,75,0.00,,,0.01,62.0,meteohub,2013-01-12 15:05:00,
2013-01-12 09:11:00,16.3,9.9,29.99,SSW,210,5.0,18.0,75,0.00,,,0.01,74.0,meteohub,2013-01-12 15:11:00,
2013-01-12 09:17:00,16.3,10.0,30.00,WSW,244,5.0,21.0,76,0.00,,,0.01,83.0,meteohub,2013-01-12 15:17:00,
2013-01-12 09:23:00,16.3,10.8,30.00,West,263,7.0,21.0,78,0.00,,,0.01,81.0,meteohub,2013-01-12 15:23:00,
2013-01-12 09:29:00,16.3,11.3,30.00,SW,234,4.0,14.0,80,0.00,,,0.01,91.0,meteohub,2013-01-12 15:29:00,
2013-01-12 09:35:00,16.2,10.8,30.01,West,263,6.0,13.0,79,0.00,,,0.01,125.0,meteohub,2013-01-12 15:35:00,
2013-01-12 09:41:00,16.2,11.1,30.01,West,263,4.0,13.0,80,0.00,,,0.01,148.0,meteohub,2013-01-12 15:41:00,
2013-01-12 09:47:00,16.5,11.1,30.02,West,273,3.0,13.0,79,0.00,,,0.01,283.0,meteohub,2013-01-12 15:47:00,
2013-01-12 09:52:00,16.3,10.0,30.02,WSW,246,8.0,13.0,76,0.00,,,0.01,167.0,meteohub,2013-01-12 15:52:00,
2013-01-12 09:58:00,16.2,9.7,30.03,WNW,286,2.0,18.0,75,0.00,,,0.01,294.0,meteohub,2013-01-12 15:58:00,
2013-01-12 10:04:00,16.9,10.6,30.03,WNW,288,7.0,18.0,76,0.00,,,0.01,299.0,meteohub,2013-01-12 16:04:00,
2013-01-12 10:10:00,16.9,9.7,30.04,WSW,248,4.0,18.0,73,0.00,,,0.01,132.0,meteohub,2013-01-12 16:10:00,
2013-01-12 10:16:00,16.2,9.0,30.04,West,271,5.0,14.0,73,0.00,,,0.01,325.0,meteohub,2013-01-12 16:16:00,
2013-01-12 10:23:00,16.0,8.6,30.04,WSW,240,7.0,14.0,72,0.00,,,0.01,295.0,meteohub,2013-01-12 16:23:00,
2013-01-12 10:29:00,15.6,8.6,30.05,West,260,7.0,15.0,73,0.00,,,0.01,276.0,meteohub,2013-01-12 16:29:00,
2013-01-12 10:35:00,15.4,8.4,30.05,SSW,192,1.0,17.0,73,0.00,,,0.01,98.0,meteohub,2013-01-12 16:35:00,
2013-01-12 10:41:00,15.4,8.1,30.06,WSW,246,5.0,17.0,72,0.00,,,0.01,128.0,meteohub,2013-01-12 16:41:00,
2013-01-12 10:47:00,15.4,8.4,30.06,WSW,254,4.0,20.0,73,0.00,,,0.01,97.0,meteohub,2013-01-12 16:47:00,
2013-01-12 10:53:00,16.0,8.8,30.06,SW,229,5.0,20.0,73,0.00,,,0.01,364.0,meteohub,2013-01-12 16:53:00,
2013-01-12 11:00:00,16.5,9.1,30.06,SW,229,15.0,20.0,72,0.00,,,0.01,378.0,meteohub,2013-01-12 17:00:00,
2013-01-12 11:06:00,16.2,8.4,30.07,SW,219,3.0,17.0,71,0.00,,,0.01,415.0,meteohub,2013-01-12 17:06:00,
2013-01-12 11:12:00,16.2,8.4,30.08,SSW,192,3.0,17.0,71,0.00,,,0.01,357.0,meteohub,2013-01-12 17:12:00,
2013-01-12 11:18:00,16.2,8.4,30.08,SSW,205,6.0,17.0,71,0.00,,,0.01,485.0,meteohub,2013-01-12 17:18:00,
2013-01-12 11:24:00,16.3,8.2,30.08,SW,236,7.0,17.0,70,0.00,,,0.01,438.0,meteohub,2013-01-12 17:24:00,
2013-01-12 11:30:00,16.7,8.6,30.08,WSW,257,3.0,17.0,70,0.00,,,0.01,406.0,meteohub,2013-01-12 17:30:00,
2013-01-12 11:37:00,17.1,8.6,30.08,WSW,244,7.0,18.0,69,0.00,,,0.01,410.0,meteohub,2013-01-12 17:37:00,
2013-01-12 11:43:00,16.5,8.1,30.07,WSW,250,7.0,18.0,69,0.00,,,0.01,418.0,meteohub,2013-01-12 17:43:00,
2013-01-12 11:49:00,16.3,8.2,30.06,West,265,7.0,16.0,70,0.00,,,0.01,408.0,meteohub,2013-01-12 17:49:00,
2013-01-12 11:55:00,16.7,8.6,30.07,SSW,207,1.0,19.0,70,0.00,,,0.01,513.0,meteohub,2013-01-12 17:55:00,
2013-01-12 12:01:00,16.7,8.1,30.08,WSW,257,8.0,19.0,68,0.00,,,0.01,134.0,meteohub,2013-01-12 18:01:00,
2013-01-12 12:07:00,15.6,7.3,30.08,West,280,3.0,18.0,69,0.00,,,0.01,497.0,meteohub,2013-01-12 18:07:00,
2013-01-12 12:14:00,15.6,7.5,30.09,SW,235,7.0,18.0,70,0.00,,,0.01,199.0,meteohub,2013-01-12 18:14:00,
2013-01-12 12:20:00,15.6,7.3,30.09,West,259,5.0,18.0,69,0.00,,,0.01,425.0,meteohub,2013-01-12 18:20:00,
2013-01-12 12:26:00,15.6,7.5,30.09,West,270,5.0,18.0,70,0.00,,,0.01,165.0,meteohub,2013-01-12 18:26:00,
2013-01-12 12:32:00,15.8,7.5,30.09,WSW,238,11.0,19.0,69,0.00,,,0.01,475.0,meteohub,2013-01-12 18:32:00,
2013-01-12 12:38:00,15.6,7.3,30.09,SSW,211,7.0,19.0,69,0.00,,,0.01,209.0,meteohub,2013-01-12 18:38:00,
2013-01-12 12:45:00,15.3,7.2,30.09,WSW,248,10.0,17.0,70,0.00,,,0.01,522.0,meteohub,2013-01-12 18:45:00,
2013-01-12 12:51:00,15.4,7.2,30.09,WSW,241,4.0,17.0,69,0.00,,,0.01,172.0,meteohub,2013-01-12 18:51:00,
2013-01-12 12:57:00,15.3,6.6,30.09,WSW,248,4.0,17.0,68,0.00,,,0.01,172.0,meteohub,2013-01-12 18:57:00,
2013-01-12 13:03:00,15.1,6.8,30.10,SW,223,5.0,17.0,69,0.00,,,0.01,178.0,meteohub,2013-01-12 19:03:00,
2013-01-12 13:09:00,15.3,7.0,30.10,WSW,246,6.0,15.0,69,0.00,,,0.01,190.0,meteohub,2013-01-12 19:09:00,
2013-01-12 13:15:00,15.3,6.6,30.11,WNW,295,7.0,15.0,68,0.00,,,0.01,171.0,meteohub,2013-01-12 19:15:00,
2013-01-12 13:22:00,15.3,7.0,30.11,SW,233,6.0,15.0,69,0.00,,,0.01,436.0,meteohub,2013-01-12 19:22:00,
2013-01-12 13:28:00,15.1,6.1,30.12,WSW,251,4.0,15.0,67,0.00,,,0.01,353.0,meteohub,2013-01-12 19:28:00,
2013-01-12 13:34:00,15.6,7.3,30.12,WSW,256,7.0,14.0,69,0.00,,,0.01,239.0,meteohub,2013-01-12 19:34:00,
2013-01-12 13:40:00,16.0,7.0,30.13,SW,222,3.0,14.0,67,0.00,,,0.01,329.0,meteohub,2013-01-12 19:40:00,
2013-01-12 13:46:00,15.6,5.9,30.13,SSW,211,5.0,14.0,65,0.00,,,0.01,283.0,meteohub,2013-01-12 19:46:00,
2013-01-12 13:52:00,14.9,6.6,30.14,SW,229,5.0,19.0,69,0.00,,,0.01,264.0,meteohub,2013-01-12 19:52:00,
2013-01-12 13:59:00,14.4,5.7,30.15,SSW,193,11.0,19.0,68,0.00,,,0.01,364.0,meteohub,2013-01-12 19:59:00,
2013-01-12 14:05:00,14.4,6.1,30.14,WSW,250,5.0,19.0,69,0.00,,,0.01,302.0,meteohub,2013-01-12 20:05:00,
2013-01-12 14:11:00,14.4,5.7,30.15,WSW,250,9.0,20.0,68,0.00,,,0.01,185.0,meteohub,2013-01-12 20:11:00,
2013-01-12 14:17:00,14.2,5.9,30.16,West,265,3.0,20.0,69,0.00,,,0.01,146.0,meteohub,2013-01-12 20:17:00,
2013-01-12 14:23:00,14.4,6.4,30.15,WSW,257,7.0,17.0,70,0.00,,,0.01,167.0,meteohub,2013-01-12 20:23:00,
2013-01-12 14:29:00,14.4,6.1,30.15,West,265,1.0,15.0,69,0.00,,,0.01,120.0,meteohub,2013-01-12 20:29:00,
2013-01-12 14:35:00,14.0,5.7,30.15,SW,234,4.0,15.0,69,0.00,,,0.01,141.0,meteohub,2013-01-12 20:35:00,
2013-01-12 14:42:00,13.6,5.7,30.16,WSW,250,2.0,14.0,70,0.00,,,0.01,149.0,meteohub,2013-01-12 20:42:00,
2013-01-12 14:48:00,13.8,6.4,30.17,West,279,10.0,14.0,72,0.00,,,0.01,144.0,meteohub,2013-01-12 20:48:00,
2013-01-12 14:54:00,13.6,5.7,30.17,WNW,288,13.0,17.0,70,0.00,,,0.01,120.0,meteohub,2013-01-12 20:54:00,
2013-01-12 15:00:00,13.5,5.5,30.17,WNW,299,1.0,17.0,70,0.00,,,0.01,144.0,meteohub,2013-01-12 21:00:00,
2013-01-12 15:06:00,13.6,5.7,30.17,West,278,6.0,17.0,70,0.00,,,0.01,137.0,meteohub,2013-01-12 21:06:00,
2013-01-12 15:12:00,13.6,5.7,30.16,WNW,288,6.0,17.0,70,0.00,,,0.01,125.0,meteohub,2013-01-12 21:12:00,
2013-01-12 15:19:00,13.5,6.1,30.17,WSW,244,2.0,15.0,72,0.00,,,0.01,97.0,meteohub,2013-01-12 21:19:00,
2013-01-12 15:25:00,13.5,5.9,30.17,WNW,282,1.0,15.0,71,0.00,,,0.01,98.0,meteohub,2013-01-12 21:25:00,
2013-01-12 15:31:00,13.3,5.0,30.17,SW,236,3.0,11.0,69,0.00,,,0.01,88.0,meteohub,2013-01-12 21:31:00,
2013-01-12 15:37:00,12.9,5.0,30.18,West,259,4.0,11.0,70,0.00,,,0.01,70.0,meteohub,2013-01-12 21:37:00,
2013-01-12 15:43:00,12.7,4.8,30.19,WSW,250,4.0,10.0,70,0.00,,,0.01,63.0,meteohub,2013-01-12 21:43:00,
2013-01-12 15:49:00,12.6,5.0,30.19,West,261,8.0,14.0,71,0.00,,,0.01,53.0,meteohub,2013-01-12 21:49:00,
2013-01-12 15:56:00,12.4,4.8,30.18,SW,229,4.0,14.0,71,0.00,,,0.01,44.0,meteohub,2013-01-12 21:56:00,
2013-01-12 16:02:00,12.4,4.8,30.18,WNW,293,14.0,14.0,71,0.00,,,0.01,53.0,meteohub,2013-01-12 22:02:00,
2013-01-12 16:08:00,12.0,4.5,30.17,WNW,295,11.0,14.0,71,0.00,,,0.01,49.0,meteohub,2013-01-12 22:08:00,
2013-01-12 16:14:00,11.8,4.6,30.18,SW,234,3.0,17.0,72,0.00,,,0.01,35.0,meteohub,2013-01-12 22:14:00,
2013-01-12 16:20:00,12.0,4.8,30.19,West,261,6.0,14.0,72,0.00,,,0.01,25.0,meteohub,2013-01-12 22:20:00,
2013-01-12 16:26:00,12.0,5.0,30.19,WSW,258,2.0,14.0,73,0.00,,,0.01,19.0,meteohub,2013-01-12 22:26:00,
2013-01-12 16:32:00,11.8,4.8,30.18,West,280,5.0,10.0,73,0.00,,,0.01,18.0,meteohub,2013-01-12 22:32:00,
2013-01-12 16:37:00,11.8,4.8,30.19,WNW,285,3.0,10.0,73,0.00,,,0.01,12.0,meteohub,2013-01-12 22:37:00,
2013-01-12 16:43:00,11.8,4.8,30.20,SSW,207,3.0,10.0,73,0.00,,,0.01,9.0,meteohub,2013-01-12 22:43:00,
2013-01-12 16:49:00,11.7,4.6,30.20,WSW,250,3.0,10.0,73,0.00,,,0.01,5.0,meteohub,2013-01-12 22:49:00,
2013-01-12 16:55:00,11.5,4.8,30.21,WSW,242,3.0,10.0,74,0.00,,,0.01,5.0,meteohub,2013-01-12 22:55:00,
2013-01-12 17:01:00,11.5,4.5,30.22,WSW,258,1.0,11.0,73,0.00,,,0.01,0.0,meteohub,2013-01-12 23:01:00,
2013-01-12 17:07:00,11.5,4.5,30.22,WSW,257,2.0,11.0,73,0.00,,,0.01,0.0,meteohub,2013-01-12 23:07:00,
2013-01-12 17:14:00,11.5,4.5,30.23,West,277,5.0,10.0,73,0.00,,,0.01,0.0,meteohub,2013-01-12 23:14:00,
2013-01-12 17:20:00,11.5,4.8,30.24,West,265,3.0,10.0,74,0.00,,,0.01,0.0,meteohub,2013-01-12 23:20:00,
2013-01-12 17:26:00,11.5,4.5,30.25,West,261,8.0,10.0,73,0.00,,,0.01,0.0,meteohub,2013-01-12 23:26:00,
2013-01-12 17:32:00,11.1,3.9,30.25,WSW,250,7.0,11.0,72,0.00,,,0.01,0.0,meteohub,2013-01-12 23:32:00,
2013-01-12 17:38:00,10.9,3.7,30.24,WNW,296,3.0,11.0,72,0.00,,,0.01,0.0,meteohub,2013-01-12 23:38:00,
2013-01-12 17:44:00,10.9,4.3,30.23,West,263,2.0,11.0,74,0.00,,,0.01,0.0,meteohub,2013-01-12 23:44:00,
2013-01-12 17:51:00,10.9,3.7,30.23,West,263,5.0,11.0,72,0.00,,,0.01,0.0,meteohub,2013-01-12 23:51:00,
2013-01-12 17:57:00,10.8,3.6,30.23,WNW,284,8.0,11.0,72,0.00,,,0.01,0.0,meteohub,2013-01-12 23:57:00,
2013-01-12 18:03:00,10.6,3.6,30.23,WSW,251,6.0,12.0,73,0.00,,,0.01,0.0,meteohub,2013-01-13 00:03:00,
2013-01-12 18:09:00,10.2,3.4,30.23,SW,223,4.0,12.0,73,0.00,,,0.01,0.0,meteohub,2013-01-13 00:09:00,
2013-01-12 18:15:00,10.0,3.4,30.23,West,281,1.0,12.0,74,0.00,,,0.01,0.0,meteohub,2013-01-13 00:15:00,
2013-01-12 18:22:00,10.0,3.4,30.24,West,264,4.0,14.0,74,0.00,,,0.01,0.0,meteohub,2013-01-13 00:22:00,
2013-01-12 18:28:00,9.9,3.2,30.24,West,263,1.0,14.0,74,0.00,,,0.01,0.0,meteohub,2013-01-13 00:28:00,
2013-01-12 18:34:00,9.9,3.6,30.23,West,260,4.0,14.0,75,0.00,,,0.01,0.0,meteohub,2013-01-13 00:34:00,
2013-01-12 18:40:00,9.9,3.7,30.24,West,266,4.0,12.0,76,0.00,,,0.01,0.0,meteohub,2013-01-13 00:40:00,
2013-01-12 18:46:00,9.7,3.6,30.24,West,262,6.0,12.0,76,0.00,,,0.01,0.0,meteohub,2013-01-13 00:46:00,
2013-01-12 18:53:00,9.7,3.6,30.25,SW,221,1.0,12.0,76,0.00,,,0.01,0.0,meteohub,2013-01-13 00:53:00,
2013-01-12 18:59:00,9.5,3.6,30.24,SW,230,5.0,12.0,76,0.00,,,0.01,0.0,meteohub,2013-01-13 00:59:00,
2013-01-12 19:05:00,9.5,3.6,30.26,West,272,6.0,10.0,76,0.00,,,0.01,0.0,meteohub,2013-01-13 01:05:00,
2013-01-12 19:11:00,9.5,3.6,30.25,WNW,298,3.0,10.0,76,0.00,,,0.01,0.0,meteohub,2013-01-13 01:11:00,
2013-01-12 19:17:00,9.5,3.6,30.25,West,273,2.0,11.0,76,0.00,,,0.01,0.0,meteohub,2013-01-13 01:17:00,
2013-01-12 19:22:00,9.5,3.6,30.25,WSW,237,4.0,11.0,76,0.00,,,0.01,0.0,meteohub,2013-01-13 01:22:00,
2013-01-12 19:28:00,9.3,3.4,30.25,West,266,6.0,10.0,76,0.00,,,0.01,0.0,meteohub,2013-01-13 01:28:00,
2013-01-12 19:34:00,9.1,3.2,30.25,WNW,282,1.0,10.0,76,0.00,,,0.01,0.0,meteohub,2013-01-13 01:34:00,
2013-01-12 19:40:00,9.1,3.2,30.25,West,259,3.0,10.0,76,0.00,,,0.01,0.0,meteohub,2013-01-13 01:40:00,
2013-01-12 19:46:00,9.1,3.2,30.26,WNW,285,3.0,13.0,76,0.00,,,0.01,0.0,meteohub,2013-01-13 01:46:00,
2013-01-12 19:52:00,9.1,3.4,30.26,West,262,10.0,13.0,77,0.00,,,0.01,0.0,meteohub,2013-01-13 01:52:00,
2013-01-12 19:59:00,9.1,3.7,30.28,WSW,257,3.0,13.0,78,0.00,,,0.01,0.0,meteohub,2013-01-13 01:59:00,
2013-01-12 20:05:00,9.1,3.7,30.27,West,265,6.0,11.0,78,0.00,,,0.01,0.0,meteohub,2013-01-13 02:05:00,
2013-01-12 20:11:00,9.1,4.3,30.27,WNW,290,3.0,11.0,80,0.00,,,0.01,0.0,meteohub,2013-01-13 02:11:00,
2013-01-12 20:17:00,9.1,4.3,30.27,West,261,3.0,11.0,80,0.00,,,0.01,0.0,meteohub,2013-01-13 02:17:00,
2013-01-12 20:23:00,9.0,3.6,30.27,NW,304,1.0,11.0,78,0.00,,,0.01,0.0,meteohub,2013-01-13 02:23:00,
2013-01-12 20:29:00,8.6,2.3,30.27,WNW,282,9.0,9.0,75,0.00,,,0.01,0.0,meteohub,2013-01-13 02:29:00,
2013-01-12 20:36:00,8.4,2.1,30.29,West,259,5.0,11.0,75,0.00,,,0.01,0.0,meteohub,2013-01-13 02:36:00,
2013-01-12 20:42:00,8.2,1.8,30.28,NNE,21,3.0,11.0,74,0.00,,,0.01,0.0,meteohub,2013-01-13 02:42:00,
2013-01-12 20:48:00,8.1,1.8,30.29,WNW,287,6.0,11.0,75,0.00,,,0.01,0.0,meteohub,2013-01-13 02:48:00,
2013-01-12 20:54:00,8.1,1.8,30.30,WNW,283,2.0,8.0,75,0.00,,,0.01,0.0,meteohub,2013-01-13 02:54:00,
2013-01-12 21:00:00,8.1,2.1,30.30,NNW,337,0.0,8.0,76,0.00,,,0.01,0.0,meteohub,2013-01-13 03:00:00,
2013-01-12 21:06:00,8.1,2.1,30.30,West,274,1.0,4.0,76,0.00,,,0.01,0.0,meteohub,2013-01-13 03:06:00,
2013-01-12 21:13:00,8.1,2.1,30.30,West,267,3.0,4.0,76,0.00,,,0.01,0.0,meteohub,2013-01-13 03:13:00,
2013-01-12 21:19:00,8.1,2.1,30.30,WNW,287,1.0,7.0,76,0.00,,,0.01,0.0,meteohub,2013-01-13 03:19:00,
2013-01-12 21:25:00,8.1,2.1,30.29,SSW,212,2.0,6.0,76,0.00,,,0.01,0.0,meteohub,2013-01-13 03:25:00,
2013-01-12 21:31:00,7.9,1.9,30.30,WNW,289,2.0,6.0,76,0.00,,,0.01,0.0,meteohub,2013-01-13 03:31:00,
2013-01-12 21:37:00,7.7,1.8,30.30,West,277,3.0,9.0,76,0.00,,,0.01,0.0,meteohub,2013-01-13 03:37:00,
2013-01-12 21:43:00,7.5,1.6,30.30,WNW,296,1.0,9.0,76,0.00,,,0.01,0.0,meteohub,2013-01-13 03:43:00,
2013-01-12 21:50:00,7.3,1.4,30.30,WSW,255,0.0,7.0,76,0.00,,,0.01,0.0,meteohub,2013-01-13 03:50:00,
2013-01-12 21:56:00,7.2,1.2,30.31,West,267,2.0,8.0,76,0.00,,,0.01,0.0,meteohub,2013-01-13 03:56:00,
2013-01-12 22:02:00,7.2,1.2,30.29,West,265,2.0,8.0,76,0.00,,,0.01,0.0,meteohub,2013-01-13 04:02:00,
2013-01-12 22:08:00,7.0,1.2,30.30,NNW,340,1.0,6.0,77,0.00,,,0.01,0.0,meteohub,2013-01-13 04:08:00,
2013-01-12 22:14:00,7.0,1.2,30.30,NNW,340,2.0,6.0,77,0.00,,,0.01,0.0,meteohub,2013-01-13 04:14:00,
2013-01-12 22:20:00,6.8,0.9,30.30,WNW,286,2.0,6.0,76,0.00,,,0.01,0.0,meteohub,2013-01-13 04:20:00,
2013-01-12 22:27:00,6.6,1.0,30.31,WNW,295,2.0,5.0,77,0.00,,,0.01,0.0,meteohub,2013-01-13 04:27:00,
2013-01-12 22:33:00,6.6,1.0,30.30,NW,309,0.0,5.0,77,0.00,,,0.01,0.0,meteohub,2013-01-13 04:33:00,
2013-01-12 22:39:00,6.4,0.9,30.31,West,261,2.0,8.0,77,0.00,,,0.01,0.0,meteohub,2013-01-13 04:39:00,
2013-01-12 22:45:00,6.4,0.9,30.30,NNW,333,2.0,7.0,77,0.00,,,0.01,0.0,meteohub,2013-01-13 04:45:00,
2013-01-12 22:51:00,6.4,0.9,30.30,NNW,329,2.0,7.0,77,0.00,,,0.01,0.0,meteohub,2013-01-13 04:51:00,
2013-01-12 22:57:00,6.3,0.7,30.30,NNW,333,3.0,7.0,77,0.00,,,0.01,0.0,meteohub,2013-01-13 04:57:00,
2013-01-12 23:02:00,6.3,0.7,30.30,NW,312,4.0,7.0,77,0.00,,,0.01,0.0,meteohub,2013-01-13 05:02:00,
2013-01-12 23:04:00,6.3,0.7,30.30,NW,304,3.0,7.0,77,0.00,,,0.01,0.0,meteohub,2013-01-13 05:04:00,
2013-01-12 23:10:00,6.3,0.7,30.31,WNW,293,1.0,6.0,77,0.00,,,0.01,0.0,meteohub,2013-01-13 05:10:00,
2013-01-12 23:16:00,6.1,0.5,30.30,NW,322,1.0,6.0,77,0.00,,,0.01,0.0,meteohub,2013-01-13 05:16:00,
2013-01-12 23:22:00,6.1,0.5,30.30,WNW,300,1.0,6.0,77,0.00,,,0.01,0.0,meteohub,2013-01-13 05:22:00,
2013-01-12 23:28:00,6.1,0.7,30.31,NW,319,2.0,7.0,78,0.00,,,0.01,0.0,meteohub,2013-01-13 05:28:00,
2013-01-12 23:34:00,6.1,0.7,30.30,NW,313,1.0,7.0,78,0.00,,,0.01,0.0,meteohub,2013-01-13 05:34:00,
2013-01-12 23:41:00,5.9,0.5,30.30,NW,314,2.0,7.0,78,0.00,,,0.01,0.0,meteohub,2013-01-13 05:41:00,
2013-01-12 23:47:00,5.9,0.5,30.31,SW,219,1.0,6.0,78,0.00,,,0.01,0.0,meteohub,2013-01-13 05:47:00,
2013-01-12 23:53:00,5.7,0.3,30.30,NW,309,2.0,6.0,78,0.00,,,0.01,0.0,meteohub,2013-01-13 05:53:00,
2013-01-12 23:59:00,5.7,0.3,30.31,West,281,1.0,6.0,78,0.00,,,0.01,0.0,meteohub,2013-01-13 05:59:00,